createdAt,value
2017-08-27T00:00:38.576Z,0
2017-08-27T00:01:41.012Z,0
2017-08-27T00:02:43.450Z,0
2017-08-27T00:03:45.874Z,0
2017-08-27T00:04:48.444Z,0
2017-08-27T00:05:50.875Z,0
2017-08-27T00:06:53.310Z,0
2017-08-27T00:07:55.746Z,0
2017-08-27T00:08:58.181Z,0
2017-08-27T00:10:00.693Z,0
2017-08-27T00:11:03.134Z,0
2017-08-27T00:12:05.563Z,0
2017-08-27T00:13:08.329Z,0
2017-08-27T00:14:11.109Z,0
2017-08-27T00:15:13.597Z,0
2017-08-27T00:16:16.030Z,0
2017-08-27T00:17:18.462Z,0
2017-08-27T00:18:20.889Z,0
2017-08-27T00:19:23.323Z,0
2017-08-27T00:20:25.858Z,0
2017-08-27T00:21:28.288Z,0
2017-08-27T00:22:30.717Z,0
2017-08-27T00:23:33.151Z,0
2017-08-27T00:24:35.614Z,0
2017-08-27T00:25:38.166Z,0
2017-08-27T00:26:40.593Z,0
2017-08-27T00:27:43.034Z,0
2017-08-27T00:28:45.467Z,0
2017-08-27T00:29:48.045Z,0
2017-08-27T00:30:50.467Z,0
2017-08-27T00:31:52.892Z,0
2017-08-27T00:32:55.322Z,0
2017-08-27T00:33:57.757Z,0
2017-08-27T00:35:00.294Z,0
2017-08-27T00:36:02.729Z,0
2017-08-27T00:37:05.165Z,0
2017-08-27T00:38:07.598Z,0
2017-08-27T00:39:10.036Z,0
2017-08-27T00:40:12.601Z,0
2017-08-27T00:41:15.034Z,0
2017-08-27T00:42:17.466Z,0
2017-08-27T00:43:19.903Z,0
2017-08-27T00:44:22.322Z,0
2017-08-27T00:45:25.015Z,0
2017-08-27T00:46:27.437Z,0
2017-08-27T00:47:30.029Z,0
2017-08-27T00:48:32.461Z,0
2017-08-27T00:49:34.896Z,0
2017-08-27T00:50:37.324Z,0
2017-08-27T00:51:39.762Z,0
2017-08-27T00:52:42.285Z,0
2017-08-27T00:53:44.708Z,0
2017-08-27T00:54:47.526Z,0
2017-08-27T00:55:50.297Z,0
2017-08-27T00:56:52.726Z,0
2017-08-27T00:57:55.159Z,0
2017-08-27T00:58:57.589Z,0
2017-08-27T01:00:00.282Z,0
2017-08-27T01:01:03.076Z,0
2017-08-27T01:02:05.499Z,0
2017-08-27T01:03:07.927Z,0
2017-08-27T01:04:10.365Z,0
2017-08-27T01:05:12.811Z,0
2017-08-27T01:06:15.353Z,0
2017-08-27T01:07:17.783Z,0
2017-08-27T01:08:20.202Z,0
2017-08-27T01:09:22.641Z,0
2017-08-27T01:10:25.074Z,0
2017-08-27T01:11:27.504Z,0
2017-08-27T01:12:30.038Z,0
2017-08-27T01:13:32.812Z,0
2017-08-27T01:14:35.243Z,0
2017-08-27T01:15:37.675Z,0
2017-08-27T01:16:40.102Z,0
2017-08-27T01:17:42.525Z,0
2017-08-27T01:18:45.012Z,0
2017-08-27T01:19:47.449Z,0
2017-08-27T01:20:49.881Z,0
2017-08-27T01:21:52.309Z,0
2017-08-27T01:22:54.742Z,0
2017-08-27T01:23:57.174Z,0
2017-08-27T01:24:59.651Z,0
2017-08-27T01:26:02.086Z,0
2017-08-27T01:27:04.522Z,0
2017-08-27T01:28:06.995Z,0
2017-08-27T01:29:09.706Z,0
2017-08-27T01:30:12.481Z,0
2017-08-27T01:31:14.911Z,0
2017-08-27T01:32:17.342Z,0
2017-08-27T01:33:19.779Z,0
2017-08-27T01:34:22.196Z,0
2017-08-27T01:35:24.635Z,0
2017-08-27T01:36:27.077Z,0
2017-08-27T01:37:29.507Z,0
2017-08-27T01:38:31.943Z,0
2017-08-27T01:39:34.492Z,0
2017-08-27T01:40:36.930Z,0
2017-08-27T01:41:39.381Z,0
2017-08-27T01:42:41.810Z,0
2017-08-27T01:43:44.240Z,0
2017-08-27T01:44:46.670Z,0
2017-08-27T01:45:49.107Z,0
2017-08-27T01:46:51.538Z,0
2017-08-27T01:47:53.973Z,0
2017-08-27T01:48:56.407Z,0
2017-08-27T01:49:59.201Z,0
2017-08-27T01:51:01.643Z,0
2017-08-27T01:52:04.082Z,0
2017-08-27T01:53:06.504Z,0
2017-08-27T01:54:08.938Z,0
2017-08-27T01:55:11.369Z,0
2017-08-27T01:56:13.804Z,0
2017-08-27T01:57:16.226Z,0
2017-08-27T01:58:19.002Z,0
2017-08-27T01:59:21.432Z,0
2017-08-27T02:00:23.871Z,0
2017-08-27T02:01:26.300Z,0
2017-08-27T02:02:28.729Z,0
2017-08-27T02:03:31.157Z,0
2017-08-27T02:04:33.590Z,0
2017-08-27T02:05:36.030Z,0
2017-08-27T02:06:38.456Z,0
2017-08-27T02:07:40.877Z,0
2017-08-27T02:08:43.307Z,0
2017-08-27T02:09:45.734Z,0
2017-08-27T02:10:48.172Z,0
2017-08-27T02:11:50.955Z,0
2017-08-27T02:12:53.388Z,0
2017-08-27T02:13:55.816Z,0
2017-08-27T02:14:58.252Z,0
2017-08-27T02:16:01.025Z,0
2017-08-27T02:17:03.453Z,0
2017-08-27T02:18:05.881Z,0
2017-08-27T02:19:08.319Z,0
2017-08-27T02:20:10.756Z,0
2017-08-27T02:21:13.184Z,0
2017-08-27T02:22:15.616Z,0
2017-08-27T02:23:18.050Z,0
2017-08-27T02:24:20.816Z,0
2017-08-27T02:25:23.249Z,0
2017-08-27T02:26:25.676Z,0
2017-08-27T02:27:28.110Z,0
2017-08-27T02:28:30.547Z,0
2017-08-27T02:29:32.983Z,0
2017-08-27T02:30:35.412Z,0
2017-08-27T02:31:38.196Z,0
2017-08-27T02:32:40.622Z,0
2017-08-27T02:33:43.052Z,0
2017-08-27T02:34:45.487Z,0
2017-08-27T02:35:47.908Z,0
2017-08-27T02:36:50.337Z,0
2017-08-27T02:37:52.772Z,0
2017-08-27T02:38:55.192Z,0
2017-08-27T02:39:57.631Z,0
2017-08-27T02:41:00.065Z,0
2017-08-27T02:42:02.832Z,0
2017-08-27T02:43:05.269Z,0
2017-08-27T02:44:07.700Z,0
2017-08-27T02:45:10.462Z,0
2017-08-27T02:46:12.898Z,0
2017-08-27T02:47:15.322Z,0
2017-08-27T02:48:17.757Z,0
2017-08-27T02:49:20.189Z,0
2017-08-27T02:50:22.619Z,0
2017-08-27T02:51:25.047Z,0
2017-08-27T02:52:27.477Z,0
2017-08-27T02:53:30.247Z,0
2017-08-27T02:54:32.682Z,0
2017-08-27T02:55:35.115Z,0
2017-08-27T02:56:37.552Z,0
2017-08-27T02:57:39.973Z,0
2017-08-27T02:58:42.406Z,0
2017-08-27T02:59:44.839Z,0
2017-08-27T03:00:47.609Z,0
2017-08-27T03:01:50.040Z,0
2017-08-27T03:02:52.469Z,0
2017-08-27T03:03:54.898Z,0
2017-08-27T03:04:57.332Z,0
2017-08-27T03:06:00.106Z,0
2017-08-27T03:07:02.539Z,0
2017-08-27T03:08:04.967Z,0
2017-08-27T03:09:07.400Z,0
2017-08-27T03:10:09.830Z,0
2017-08-27T03:11:12.962Z,0
2017-08-27T03:12:15.385Z,0
2017-08-27T03:13:18.157Z,0
2017-08-27T03:14:20.591Z,0
2017-08-27T03:15:23.358Z,0
2017-08-27T03:16:25.780Z,0
2017-08-27T03:17:28.215Z,0
2017-08-27T03:18:30.637Z,0
2017-08-27T03:19:33.415Z,0
2017-08-27T03:20:35.840Z,0
2017-08-27T03:21:38.264Z,0
2017-08-27T03:22:40.696Z,0
2017-08-27T03:23:43.125Z,0
2017-08-27T03:24:45.559Z,0
2017-08-27T03:25:47.985Z,0
2017-08-27T03:26:50.411Z,0
2017-08-27T03:27:52.840Z,0
2017-08-27T03:28:55.269Z,0
2017-08-27T03:29:57.700Z,0
2017-08-27T03:31:00.136Z,0
2017-08-27T03:32:02.920Z,0
2017-08-27T03:33:05.727Z,0
2017-08-27T03:34:08.498Z,0
2017-08-27T03:35:11.641Z,0
2017-08-27T03:36:14.063Z,0
2017-08-27T03:37:16.494Z,0
2017-08-27T03:38:18.918Z,0
2017-08-27T03:39:21.345Z,0
2017-08-27T03:40:23.773Z,0
2017-08-27T03:41:26.200Z,0
2017-08-27T03:42:28.634Z,0
2017-08-27T03:43:31.063Z,0
2017-08-27T03:44:33.493Z,0
2017-08-27T03:45:35.919Z,0
2017-08-27T03:46:38.349Z,0
2017-08-27T03:47:40.788Z,0
2017-08-27T03:48:43.214Z,0
2017-08-27T03:49:45.648Z,0
2017-08-27T03:50:48.077Z,0
2017-08-27T03:51:50.847Z,0
2017-08-27T03:52:53.282Z,0
2017-08-27T03:53:55.708Z,0
2017-08-27T03:54:58.130Z,0
2017-08-27T03:56:00.562Z,0
2017-08-27T03:57:02.991Z,0
2017-08-27T03:58:06.118Z,0
2017-08-27T03:59:08.543Z,0
2017-08-27T04:00:10.978Z,0
2017-08-27T04:01:13.405Z,0
2017-08-27T04:02:16.170Z,0
2017-08-27T04:03:18.597Z,0
2017-08-27T04:04:21.029Z,0
2017-08-27T04:05:23.456Z,0
2017-08-27T04:06:25.889Z,0
2017-08-27T04:07:28.319Z,0
2017-08-27T04:08:30.753Z,0
2017-08-27T04:09:33.184Z,1
2017-08-27T04:10:35.614Z,1
2017-08-27T04:11:38.043Z,1
2017-08-27T04:12:40.825Z,1
2017-08-27T04:13:43.252Z,1
2017-08-27T04:14:45.681Z,1
2017-08-27T04:15:48.108Z,2
2017-08-27T04:16:50.883Z,2
2017-08-27T04:17:53.308Z,2
2017-08-27T04:18:55.742Z,2
2017-08-27T04:19:58.169Z,2
2017-08-27T04:21:00.584Z,3
2017-08-27T04:22:03.017Z,3
2017-08-27T04:23:05.452Z,3
2017-08-27T04:24:07.875Z,4
2017-08-27T04:25:10.303Z,4
2017-08-27T04:26:13.076Z,4
2017-08-27T04:27:15.510Z,4
2017-08-27T04:28:18.292Z,5
2017-08-27T04:29:20.714Z,5
2017-08-27T04:30:23.129Z,5
2017-08-27T04:31:25.568Z,6
2017-08-27T04:32:28.013Z,6
2017-08-27T04:33:30.433Z,7
2017-08-27T04:34:32.861Z,7
2017-08-27T04:35:35.288Z,7
2017-08-27T04:36:38.054Z,8
2017-08-27T04:37:40.501Z,8
2017-08-27T04:38:42.923Z,9
2017-08-27T04:39:45.692Z,9
2017-08-27T04:40:48.126Z,9
2017-08-27T04:41:50.558Z,10
2017-08-27T04:42:52.993Z,10
2017-08-27T04:43:55.424Z,11
2017-08-27T04:44:57.842Z,11
2017-08-27T04:46:00.273Z,11
2017-08-27T04:47:02.705Z,12
2017-08-27T04:48:05.131Z,12
2017-08-27T04:49:07.561Z,13
2017-08-27T04:50:09.990Z,13
2017-08-27T04:51:12.421Z,13
2017-08-27T04:52:14.836Z,14
2017-08-27T04:53:17.273Z,14
2017-08-27T04:54:19.697Z,15
2017-08-27T04:55:22.121Z,15
2017-08-27T04:56:24.559Z,15
2017-08-27T04:57:26.987Z,16
2017-08-27T04:58:29.412Z,16
2017-08-27T04:59:31.849Z,16
2017-08-27T05:00:34.270Z,17
2017-08-27T05:01:36.703Z,17
2017-08-27T05:02:39.131Z,18
2017-08-27T05:03:41.563Z,18
2017-08-27T05:04:43.986Z,19
2017-08-27T05:05:46.422Z,19
2017-08-27T05:06:48.846Z,19
2017-08-27T05:07:51.274Z,20
2017-08-27T05:08:54.070Z,20
2017-08-27T05:09:56.496Z,21
2017-08-27T05:10:59.261Z,21
2017-08-27T05:12:01.708Z,22
2017-08-27T05:13:04.115Z,22
2017-08-27T05:14:06.549Z,22
2017-08-27T05:15:08.973Z,23
2017-08-27T05:16:11.402Z,23
2017-08-27T05:17:13.830Z,23
2017-08-27T05:18:16.265Z,23
2017-08-27T05:19:18.688Z,24
2017-08-27T05:20:21.457Z,24
2017-08-27T05:21:23.885Z,25
2017-08-27T05:22:26.311Z,25
2017-08-27T05:23:28.747Z,26
2017-08-27T05:24:31.174Z,26
2017-08-27T05:25:33.606Z,27
2017-08-27T05:26:36.027Z,27
2017-08-27T05:27:38.463Z,28
2017-08-27T05:28:40.892Z,28
2017-08-27T05:29:43.316Z,29
2017-08-27T05:30:46.086Z,29
2017-08-27T05:31:48.519Z,30
2017-08-27T05:32:50.947Z,30
2017-08-27T05:33:53.376Z,31
2017-08-27T05:34:55.794Z,31
2017-08-27T05:35:58.564Z,31
2017-08-27T05:37:01.001Z,32
2017-08-27T05:38:03.764Z,32
2017-08-27T05:39:06.191Z,33
2017-08-27T05:40:08.623Z,33
2017-08-27T05:41:11.051Z,34
2017-08-27T05:42:13.837Z,35
2017-08-27T05:43:16.268Z,35
2017-08-27T05:44:18.686Z,35
2017-08-27T05:45:21.121Z,36
2017-08-27T05:46:23.897Z,37
2017-08-27T05:47:26.322Z,37
2017-08-27T05:48:28.743Z,37
2017-08-27T05:49:31.170Z,37
2017-08-27T05:50:33.602Z,37
2017-08-27T05:51:36.018Z,39
2017-08-27T05:52:38.444Z,40
2017-08-27T05:53:40.884Z,41
2017-08-27T05:54:43.651Z,42
2017-08-27T05:55:46.078Z,42
2017-08-27T05:56:48.517Z,43
2017-08-27T05:57:50.940Z,43
2017-08-27T05:58:53.375Z,43
2017-08-27T05:59:55.806Z,43
2017-08-27T06:00:58.225Z,44
2017-08-27T06:02:00.653Z,44
2017-08-27T06:03:03.085Z,46
2017-08-27T06:04:05.510Z,47
2017-08-27T06:05:07.937Z,48
2017-08-27T06:06:10.369Z,52
2017-08-27T06:07:12.789Z,55
2017-08-27T06:08:15.567Z,54
2017-08-27T06:09:17.993Z,49
2017-08-27T06:10:20.417Z,46
2017-08-27T06:11:23.212Z,44
2017-08-27T06:12:25.981Z,45
2017-08-27T06:13:28.423Z,47
2017-08-27T06:14:30.861Z,52
2017-08-27T06:15:33.304Z,55
2017-08-27T06:16:35.735Z,58
2017-08-27T06:17:38.179Z,59
2017-08-27T06:18:40.609Z,52
2017-08-27T06:19:43.042Z,48
2017-08-27T06:20:45.493Z,55
2017-08-27T06:21:48.256Z,62
2017-08-27T06:22:51.030Z,59
2017-08-27T06:23:53.466Z,59
2017-08-27T06:24:56.257Z,58
2017-08-27T06:25:59.034Z,59
2017-08-27T06:27:01.464Z,60
2017-08-27T06:28:03.896Z,61
2017-08-27T06:29:06.326Z,61
2017-08-27T06:30:09.111Z,62
2017-08-27T06:31:11.554Z,63
2017-08-27T06:32:13.984Z,63
2017-08-27T06:33:16.436Z,64
2017-08-27T06:34:18.871Z,65
2017-08-27T06:35:21.324Z,66
2017-08-27T06:36:23.753Z,68
2017-08-27T06:37:26.187Z,69
2017-08-27T06:38:28.620Z,68
2017-08-27T06:39:31.417Z,68
2017-08-27T06:40:33.847Z,70
2017-08-27T06:41:36.287Z,71
2017-08-27T06:42:38.712Z,75
2017-08-27T06:43:41.143Z,75
2017-08-27T06:44:43.581Z,81
2017-08-27T06:45:46.014Z,78
2017-08-27T06:46:48.786Z,75
2017-08-27T06:47:51.560Z,75
2017-08-27T06:48:53.988Z,77
2017-08-27T06:49:56.424Z,76
2017-08-27T06:50:58.873Z,80
2017-08-27T06:52:01.305Z,82
2017-08-27T06:53:04.112Z,78
2017-08-27T06:54:06.562Z,82
2017-08-27T06:55:08.994Z,89
2017-08-27T06:56:11.441Z,87
2017-08-27T06:57:13.873Z,91
2017-08-27T06:58:16.631Z,92
2017-08-27T06:59:19.065Z,102
2017-08-27T07:00:21.846Z,89
2017-08-27T07:01:24.283Z,93
2017-08-27T07:02:26.716Z,94
2017-08-27T07:03:29.149Z,87
2017-08-27T07:04:31.594Z,93
2017-08-27T07:05:34.020Z,98
2017-08-27T07:06:36.458Z,87
2017-08-27T07:07:38.910Z,93
2017-08-27T07:08:41.355Z,87
2017-08-27T07:09:43.814Z,110
2017-08-27T07:10:46.252Z,104
2017-08-27T07:11:48.739Z,116
2017-08-27T07:13:36.009Z,104
2017-08-27T07:14:38.416Z,69
2017-08-27T07:15:40.829Z,91
2017-08-27T07:16:43.235Z,103
2017-08-27T07:17:45.657Z,108
2017-08-27T07:18:48.064Z,77
2017-08-27T07:19:50.476Z,91
2017-08-27T07:20:52.884Z,92
2017-08-27T07:21:55.295Z,91
2017-08-27T07:22:57.690Z,97
2017-08-27T07:24:00.103Z,89
2017-08-27T07:25:02.512Z,81
2017-08-27T07:26:04.914Z,106
2017-08-27T07:27:07.329Z,88
2017-08-27T07:28:09.743Z,123
2017-08-27T07:29:12.145Z,87
2017-08-27T07:30:14.559Z,93
2017-08-27T07:31:16.964Z,112
2017-08-27T07:32:19.379Z,117
2017-08-27T07:33:21.793Z,99
2017-08-27T07:34:24.529Z,111
2017-08-27T07:35:27.279Z,101
2017-08-27T07:36:29.693Z,121
2017-08-27T07:37:32.095Z,151
2017-08-27T07:38:34.852Z,112
2017-08-27T07:39:37.269Z,85
2017-08-27T07:40:40.013Z,75
2017-08-27T07:41:42.437Z,93
2017-08-27T07:42:44.845Z,114
2017-08-27T07:43:47.248Z,107
2017-08-27T07:44:49.660Z,81
2017-08-27T07:45:52.066Z,121
2017-08-27T07:46:54.475Z,105
2017-08-27T07:47:56.880Z,91
2017-08-27T07:48:59.308Z,100
2017-08-27T07:50:01.733Z,116
2017-08-27T07:51:04.132Z,113
2017-08-27T07:52:06.547Z,117
2017-08-27T07:53:08.950Z,138
2017-08-27T07:54:11.359Z,165
2017-08-27T07:55:13.767Z,154
2017-08-27T07:56:16.176Z,128
2017-08-27T07:57:18.581Z,143
2017-08-27T07:58:20.995Z,136
2017-08-27T07:59:23.403Z,221
2017-08-27T08:00:25.803Z,340
2017-08-27T08:01:28.549Z,289
2017-08-27T08:02:30.960Z,255
2017-08-27T08:03:33.707Z,135
2017-08-27T08:04:36.117Z,348
2017-08-27T08:05:38.512Z,388
2017-08-27T08:06:41.258Z,365
2017-08-27T08:07:43.676Z,348
2017-08-27T08:08:46.083Z,156
2017-08-27T08:09:48.488Z,332
2017-08-27T08:10:50.904Z,125
2017-08-27T08:11:53.313Z,117
2017-08-27T08:12:55.726Z,382
2017-08-27T08:13:58.143Z,362
2017-08-27T08:15:00.532Z,130
2017-08-27T08:16:02.946Z,110
2017-08-27T08:17:05.363Z,95
2017-08-27T08:18:07.795Z,96
2017-08-27T08:19:10.201Z,100
2017-08-27T08:20:13.299Z,196
2017-08-27T08:21:15.709Z,422
2017-08-27T08:22:18.106Z,468
2017-08-27T08:23:20.522Z,114
2017-08-27T08:24:22.934Z,119
2017-08-27T08:25:25.342Z,262
2017-08-27T08:26:27.757Z,147
2017-08-27T08:27:31.179Z,165
2017-08-27T08:28:33.826Z,444
2017-08-27T08:29:36.241Z,413
2017-08-27T08:30:38.652Z,144
2017-08-27T08:31:41.056Z,459
2017-08-27T08:32:43.807Z,369
2017-08-27T08:33:46.218Z,129
2017-08-27T08:34:48.625Z,479
2017-08-27T08:35:51.378Z,142
2017-08-27T08:36:53.789Z,132
2017-08-27T08:37:56.193Z,138
2017-08-27T08:38:58.608Z,373
2017-08-27T08:40:01.013Z,404
2017-08-27T08:41:03.766Z,110
2017-08-27T08:42:06.170Z,113
2017-08-27T08:43:08.578Z,123
2017-08-27T08:44:10.986Z,233
2017-08-27T08:45:13.399Z,115
2017-08-27T08:46:15.808Z,124
2017-08-27T08:47:18.223Z,128
2017-08-27T08:48:20.630Z,492
2017-08-27T08:49:23.040Z,428
2017-08-27T08:50:25.456Z,467
2017-08-27T08:51:27.868Z,356
2017-08-27T08:52:30.276Z,170
2017-08-27T08:53:33.032Z,510
2017-08-27T08:54:35.782Z,233
2017-08-27T08:55:38.536Z,555
2017-08-27T08:56:40.949Z,200
2017-08-27T08:57:43.348Z,105
2017-08-27T08:58:46.100Z,105
2017-08-27T08:59:48.850Z,465
2017-08-27T09:00:51.262Z,750
2017-08-27T09:01:53.676Z,808
2017-08-27T09:02:56.074Z,384
2017-08-27T09:03:58.491Z,119
2017-08-27T09:05:00.907Z,89
2017-08-27T09:06:03.316Z,88
2017-08-27T09:07:05.728Z,94
2017-08-27T09:08:08.143Z,522
2017-08-27T09:09:10.898Z,530
2017-08-27T09:10:13.319Z,581
2017-08-27T09:11:15.732Z,629
2017-08-27T09:12:18.138Z,574
2017-08-27T09:13:20.554Z,553
2017-08-27T09:14:22.966Z,549
2017-08-27T09:15:25.381Z,438
2017-08-27T09:16:28.133Z,473
2017-08-27T09:17:30.553Z,527
2017-08-27T09:18:32.968Z,547
2017-08-27T09:19:35.730Z,502
2017-08-27T09:20:38.144Z,466
2017-08-27T09:21:40.556Z,572
2017-08-27T09:22:42.967Z,334
2017-08-27T09:23:45.389Z,646
2017-08-27T09:24:48.140Z,625
2017-08-27T09:25:50.553Z,604
2017-08-27T09:26:53.306Z,210
2017-08-27T09:27:55.730Z,120
2017-08-27T09:28:58.498Z,75
2017-08-27T09:30:00.921Z,62
2017-08-27T09:31:03.338Z,82
2017-08-27T09:32:06.095Z,106
2017-08-27T09:33:08.513Z,119
2017-08-27T09:34:10.930Z,117
2017-08-27T09:35:13.342Z,116
2017-08-27T09:36:15.761Z,121
2017-08-27T09:37:18.508Z,130
2017-08-27T09:38:21.268Z,140
2017-08-27T09:39:24.024Z,157
2017-08-27T09:40:26.437Z,177
2017-08-27T09:41:29.208Z,535
2017-08-27T09:42:31.624Z,289
2017-08-27T09:43:34.036Z,244
2017-08-27T09:44:36.454Z,336
2017-08-27T09:45:38.864Z,676
2017-08-27T09:46:41.274Z,187
2017-08-27T09:47:43.689Z,153
2017-08-27T09:48:46.103Z,134
2017-08-27T09:49:48.524Z,117
2017-08-27T09:50:50.939Z,95
2017-08-27T09:51:53.349Z,64
2017-08-27T09:52:55.765Z,49
2017-08-27T09:53:58.177Z,44
2017-08-27T09:55:00.599Z,49
2017-08-27T09:56:03.016Z,58
2017-08-27T09:57:05.756Z,67
2017-08-27T09:58:08.172Z,81
2017-08-27T09:59:10.930Z,97
2017-08-27T10:00:13.349Z,123
2017-08-27T10:01:15.766Z,497
2017-08-27T10:02:18.173Z,558
2017-08-27T10:03:20.580Z,604
2017-08-27T10:04:23.000Z,372
2017-08-27T10:05:25.414Z,562
2017-08-27T10:06:28.163Z,645
2017-08-27T10:07:30.578Z,540
2017-08-27T10:08:32.994Z,731
2017-08-27T10:09:35.405Z,159
2017-08-27T10:10:37.827Z,111
2017-08-27T10:11:40.232Z,97
2017-08-27T10:12:42.647Z,96
2017-08-27T10:13:45.064Z,110
2017-08-27T10:14:47.478Z,148
2017-08-27T10:15:49.889Z,483
2017-08-27T10:16:52.306Z,565
2017-08-27T10:17:54.719Z,216
2017-08-27T10:18:57.127Z,181
2017-08-27T10:19:59.536Z,195
2017-08-27T10:21:01.956Z,201
2017-08-27T10:22:04.367Z,225
2017-08-27T10:23:06.775Z,198
2017-08-27T10:24:09.195Z,212
2017-08-27T10:25:11.599Z,322
2017-08-27T10:26:14.008Z,697
2017-08-27T10:27:16.428Z,569
2017-08-27T10:28:18.831Z,235
2017-08-27T10:29:21.583Z,196
2017-08-27T10:30:24.006Z,196
2017-08-27T10:31:26.416Z,330
2017-08-27T10:32:28.827Z,616
2017-08-27T10:33:31.244Z,233
2017-08-27T10:34:33.654Z,746
2017-08-27T10:35:36.084Z,173
2017-08-27T10:36:38.491Z,168
2017-08-27T10:37:40.901Z,720
2017-08-27T10:38:43.315Z,201
2017-08-27T10:39:45.735Z,116
2017-08-27T10:40:48.149Z,109
2017-08-27T10:41:50.569Z,118
2017-08-27T10:42:52.988Z,137
2017-08-27T10:43:55.403Z,146
2017-08-27T10:44:57.828Z,125
2017-08-27T10:46:00.239Z,103
2017-08-27T10:47:03.003Z,88
2017-08-27T10:48:05.412Z,79
2017-08-27T10:49:07.827Z,78
2017-08-27T10:50:10.240Z,92
2017-08-27T10:51:12.986Z,113
2017-08-27T10:52:15.402Z,584
2017-08-27T10:53:17.820Z,595
2017-08-27T10:54:20.228Z,616
2017-08-27T10:55:22.650Z,582
2017-08-27T10:56:25.069Z,541
2017-08-27T10:57:27.475Z,867
2017-08-27T10:58:29.894Z,1087
2017-08-27T10:59:32.312Z,628
2017-08-27T11:00:34.721Z,590
2017-08-27T11:01:37.143Z,591
2017-08-27T11:02:39.556Z,331
2017-08-27T11:03:41.966Z,613
2017-08-27T11:04:44.381Z,164
2017-08-27T11:05:46.794Z,144
2017-08-27T11:06:49.212Z,210
2017-08-27T11:07:51.634Z,105
2017-08-27T11:08:54.042Z,84
2017-08-27T11:09:57.142Z,64
2017-08-27T11:10:59.558Z,56
2017-08-27T11:12:01.976Z,50
2017-08-27T11:13:04.732Z,46
2017-08-27T11:14:07.151Z,49
2017-08-27T11:15:09.566Z,58
2017-08-27T11:16:12.316Z,67
2017-08-27T11:17:14.729Z,80
2017-08-27T11:18:17.158Z,93
2017-08-27T11:19:19.568Z,129
2017-08-27T11:20:21.976Z,216
2017-08-27T11:21:24.754Z,294
2017-08-27T11:22:27.176Z,607
2017-08-27T11:23:29.595Z,139
2017-08-27T11:24:32.013Z,118
2017-08-27T11:25:35.099Z,115
2017-08-27T11:26:37.519Z,126
2017-08-27T11:27:40.278Z,673
2017-08-27T11:28:42.699Z,468
2017-08-27T11:29:45.110Z,638
2017-08-27T11:30:47.525Z,584
2017-08-27T11:31:50.297Z,134
2017-08-27T11:32:52.720Z,303
2017-08-27T11:33:55.133Z,306
2017-08-27T11:34:57.883Z,568
2017-08-27T11:36:00.350Z,678
2017-08-27T11:37:03.110Z,198
2017-08-27T11:38:05.521Z,146
2017-08-27T11:39:08.280Z,154
2017-08-27T11:40:10.691Z,621
2017-08-27T11:41:13.112Z,129
2017-08-27T11:42:15.531Z,96
2017-08-27T11:43:17.953Z,78
2017-08-27T11:44:20.362Z,71
2017-08-27T11:45:22.770Z,70
2017-08-27T11:46:25.187Z,74
2017-08-27T11:47:27.607Z,86
2017-08-27T11:48:30.022Z,104
2017-08-27T11:49:32.438Z,140
2017-08-27T11:50:34.857Z,280
2017-08-27T11:51:37.257Z,269
2017-08-27T11:52:39.683Z,282
2017-08-27T11:53:42.098Z,156
2017-08-27T11:54:44.513Z,122
2017-08-27T11:55:46.930Z,103
2017-08-27T11:56:49.350Z,87
2017-08-27T11:57:52.453Z,76
2017-08-27T11:58:54.877Z,78
2017-08-27T11:59:57.286Z,149
2017-08-27T12:00:59.704Z,86
2017-08-27T12:02:02.121Z,87
2017-08-27T12:03:04.537Z,94
2017-08-27T12:04:07.299Z,110
2017-08-27T12:05:09.714Z,131
2017-08-27T12:06:12.127Z,541
2017-08-27T12:07:14.907Z,152
2017-08-27T12:08:17.316Z,144
2017-08-27T12:09:19.736Z,131
2017-08-27T12:10:22.153Z,146
2017-08-27T12:11:24.918Z,226
2017-08-27T12:12:27.330Z,179
2017-08-27T12:13:29.749Z,165
2017-08-27T12:14:32.160Z,603
2017-08-27T12:15:34.576Z,589
2017-08-27T12:16:36.989Z,677
2017-08-27T12:17:39.420Z,427
2017-08-27T12:18:41.832Z,297
2017-08-27T12:19:44.250Z,158
2017-08-27T12:20:46.663Z,163
2017-08-27T12:21:49.417Z,217
2017-08-27T12:22:51.836Z,146
2017-08-27T12:23:54.254Z,190
2017-08-27T12:24:56.661Z,638
2017-08-27T12:25:59.077Z,631
2017-08-27T12:27:01.498Z,638
2017-08-27T12:28:03.915Z,749
2017-08-27T12:29:06.328Z,774
2017-08-27T12:30:09.081Z,694
2017-08-27T12:31:11.494Z,650
2017-08-27T12:32:13.917Z,660
2017-08-27T12:33:16.324Z,757
2017-08-27T12:34:19.082Z,783
2017-08-27T12:35:21.491Z,698
2017-08-27T12:36:23.914Z,633
2017-08-27T12:37:26.331Z,568
2017-08-27T12:38:28.751Z,579
2017-08-27T12:39:31.156Z,644
2017-08-27T12:40:33.574Z,625
2017-08-27T12:41:36.001Z,674
2017-08-27T12:42:38.414Z,197
2017-08-27T12:43:40.838Z,227
2017-08-27T12:44:43.256Z,162
2017-08-27T12:45:45.680Z,147
2017-08-27T12:46:48.099Z,145
2017-08-27T12:47:50.524Z,403
2017-08-27T12:48:52.954Z,169
2017-08-27T12:49:55.365Z,146
2017-08-27T12:50:57.782Z,414
2017-08-27T12:52:00.203Z,139
2017-08-27T12:53:02.966Z,136
2017-08-27T12:54:05.382Z,327
2017-08-27T12:55:07.803Z,133
2017-08-27T12:56:10.215Z,527
2017-08-27T12:57:12.974Z,179
2017-08-27T12:58:15.740Z,597
2017-08-27T12:59:18.154Z,573
2017-08-27T13:00:20.581Z,510
2017-08-27T13:01:22.999Z,515
2017-08-27T13:02:25.414Z,732
2017-08-27T13:03:28.174Z,593
2017-08-27T13:04:30.598Z,429
2017-08-27T13:05:33.008Z,525
2017-08-27T13:06:35.431Z,775
2017-08-27T13:07:38.196Z,557
2017-08-27T13:08:40.629Z,594
2017-08-27T13:09:43.038Z,605
2017-08-27T13:10:45.460Z,485
2017-08-27T13:11:47.871Z,444
2017-08-27T13:12:50.632Z,230
2017-08-27T13:13:53.050Z,514
2017-08-27T13:14:55.813Z,413
2017-08-27T13:15:58.367Z,238
2017-08-27T13:17:01.321Z,272
2017-08-27T13:18:03.798Z,249
2017-08-27T13:19:06.214Z,126
2017-08-27T13:20:08.643Z,96
2017-08-27T13:21:11.059Z,78
2017-08-27T13:22:13.477Z,71
2017-08-27T13:23:15.893Z,64
2017-08-27T13:24:18.314Z,59
2017-08-27T13:25:20.738Z,53
2017-08-27T13:26:23.164Z,47
2017-08-27T13:27:25.927Z,46
2017-08-27T13:28:28.692Z,51
2017-08-27T13:29:31.110Z,60
2017-08-27T13:30:33.533Z,72
2017-08-27T13:31:36.309Z,85
2017-08-27T13:32:39.087Z,99
2017-08-27T13:33:41.854Z,113
2017-08-27T13:34:44.618Z,123
2017-08-27T13:35:47.375Z,131
2017-08-27T13:36:50.129Z,137
2017-08-27T13:37:52.550Z,135
2017-08-27T13:38:55.313Z,124
2017-08-27T13:39:58.098Z,114
2017-08-27T13:41:00.529Z,103
2017-08-27T13:42:02.941Z,92
2017-08-27T13:43:05.700Z,78
2017-08-27T13:44:08.115Z,66
2017-08-27T13:45:10.556Z,59
2017-08-27T13:46:12.963Z,55
2017-08-27T13:47:15.384Z,52
2017-08-27T13:48:17.813Z,51
2017-08-27T13:49:20.231Z,51
2017-08-27T13:50:22.651Z,52
2017-08-27T13:51:25.068Z,53
2017-08-27T13:52:27.484Z,53
2017-08-27T13:53:29.909Z,60
2017-08-27T13:54:32.326Z,73
2017-08-27T13:55:34.744Z,106
2017-08-27T13:56:37.516Z,107
2017-08-27T13:57:39.933Z,417
2017-08-27T13:58:42.341Z,107
2017-08-27T13:59:44.764Z,91
2017-08-27T14:00:47.174Z,82
2017-08-27T14:01:49.952Z,73
2017-08-27T14:02:52.365Z,69
2017-08-27T14:03:54.786Z,66
2017-08-27T14:04:57.550Z,64
2017-08-27T14:05:59.975Z,77
2017-08-27T14:07:02.385Z,79
2017-08-27T14:08:04.808Z,83
2017-08-27T14:09:07.220Z,81
2017-08-27T14:10:09.641Z,83
2017-08-27T14:11:12.059Z,84
2017-08-27T14:12:14.472Z,85
2017-08-27T14:13:16.896Z,82
2017-08-27T14:14:19.310Z,72
2017-08-27T14:15:21.725Z,62
2017-08-27T14:16:24.147Z,53
2017-08-27T14:17:26.563Z,46
2017-08-27T14:18:28.975Z,43
2017-08-27T14:19:31.745Z,42
2017-08-27T14:20:34.148Z,41
2017-08-27T14:21:36.572Z,40
2017-08-27T14:22:38.987Z,39
2017-08-27T14:23:41.741Z,42
2017-08-27T14:24:44.164Z,49
2017-08-27T14:25:46.590Z,58
2017-08-27T14:26:49.342Z,67
2017-08-27T14:27:51.764Z,67
2017-08-27T14:28:54.175Z,61
2017-08-27T14:29:56.624Z,59
2017-08-27T14:30:59.091Z,53
2017-08-27T14:32:01.898Z,44
2017-08-27T14:33:04.357Z,37
2017-08-27T14:34:06.835Z,33
2017-08-27T14:35:09.641Z,30
2017-08-27T14:36:12.111Z,27
2017-08-27T14:37:14.588Z,27
2017-08-27T14:38:17.038Z,30
2017-08-27T14:39:19.504Z,35
2017-08-27T14:40:21.982Z,45
2017-08-27T14:41:24.446Z,71
2017-08-27T14:42:26.921Z,81
2017-08-27T14:43:29.384Z,96
2017-08-27T14:44:32.201Z,106
2017-08-27T14:45:34.686Z,112
2017-08-27T14:46:37.143Z,111
2017-08-27T14:47:39.613Z,110
2017-08-27T14:48:42.451Z,107
2017-08-27T14:49:44.927Z,274
2017-08-27T14:50:47.390Z,110